createdAt,value
2023-03-04T00:00:47.949Z,2.45
2023-03-04T00:03:16.673Z,2.40
2023-03-04T00:05:45.066Z,2.40
2023-03-04T00:08:13.227Z,2.35
2023-03-04T00:10:41.417Z,2.34
2023-03-04T00:13:09.970Z,2.33
2023-03-04T00:15:40.155Z,2.30
2023-03-04T00:18:08.501Z,2.32
2023-03-04T00:20:36.657Z,2.29
2023-03-04T00:23:04.921Z,2.26
2023-03-04T00:25:33.665Z,2.25
2023-03-04T00:28:02.036Z,2.23
2023-03-04T00:30:31.838Z,2.15
2023-03-04T00:33:01.685Z,2.14
2023-03-04T00:35:30.141Z,2.09
2023-03-04T00:37:58.480Z,2.03
2023-03-04T00:40:26.720Z,1.98
2023-03-04T00:42:55.049Z,1.98
2023-03-04T00:45:23.226Z,1.97
2023-03-04T00:47:51.490Z,1.95
2023-03-04T00:50:24.677Z,1.92
2023-03-04T00:52:52.913Z,1.90
2023-03-04T00:55:21.300Z,1.84
2023-03-04T00:57:49.605Z,1.83
2023-03-04T01:00:22.615Z,1.83
2023-03-04T01:02:50.992Z,1.83
2023-03-04T01:05:20.899Z,1.81
2023-03-04T01:07:49.250Z,1.83
2023-03-04T01:10:19.858Z,1.83
2023-03-04T01:12:48.151Z,1.81
2023-03-04T01:15:16.784Z,1.82
2023-03-04T01:17:46.069Z,1.79
2023-03-04T01:20:15.686Z,1.77
2023-03-04T01:22:45.454Z,1.77
2023-03-04T01:25:14.347Z,1.75
2023-03-04T01:27:42.598Z,1.70
2023-03-04T01:30:12.691Z,1.68
2023-03-04T01:32:41.082Z,1.65
2023-03-04T01:35:10.067Z,1.61
2023-03-04T01:37:38.401Z,1.58
2023-03-04T01:40:10.124Z,1.50
2023-03-04T01:42:38.859Z,1.49
2023-03-04T01:45:08.721Z,1.46
2023-03-04T01:47:37.142Z,1.45
2023-03-04T01:50:12.841Z,1.44
2023-03-04T01:52:43.032Z,1.43
2023-03-04T01:55:18.565Z,1.41
2023-03-04T01:57:47.981Z,1.42
2023-03-04T02:00:26.531Z,1.40
2023-03-04T02:02:56.455Z,1.39
2023-03-04T02:05:25.141Z,1.39
2023-03-04T02:07:54.549Z,1.39
2023-03-04T02:10:26.455Z,1.44
2023-03-04T02:12:55.054Z,1.46
2023-03-04T02:15:24.469Z,1.49
2023-03-04T02:17:52.730Z,1.49
2023-03-04T02:20:36.414Z,1.47
2023-03-04T02:23:13.119Z,1.41
2023-03-04T02:25:48.409Z,1.36
2023-03-04T02:28:18.299Z,1.32
2023-03-04T02:30:46.617Z,1.27
2023-03-04T02:33:21.251Z,1.23
2023-03-04T02:35:50.235Z,1.19
2023-03-04T02:38:18.704Z,1.12
2023-03-04T02:40:49.951Z,1.05
2023-03-04T02:43:19.982Z,0.99
2023-03-04T02:45:50.626Z,0.97
2023-03-04T02:48:21.768Z,0.87
2023-03-04T02:50:52.915Z,0.87
2023-03-04T02:53:21.939Z,0.83
2023-03-04T02:55:50.670Z,0.79
2023-03-04T02:58:20.381Z,0.74
2023-03-04T03:00:49.071Z,0.74
2023-03-04T03:03:17.333Z,0.72
2023-03-04T03:05:45.980Z,0.69
2023-03-04T03:08:14.447Z,0.64
2023-03-04T03:10:44.543Z,0.65
2023-03-04T03:13:12.713Z,0.64
2023-03-04T03:15:43.738Z,0.61
2023-03-04T03:18:12.122Z,0.57
2023-03-04T03:20:40.336Z,0.54
2023-03-04T03:23:09.246Z,0.52
2023-03-04T03:25:37.619Z,0.50
2023-03-04T03:28:06.257Z,0.44
2023-03-04T03:30:34.546Z,0.43
2023-03-04T03:33:04.757Z,0.37
2023-03-04T03:35:33.318Z,0.35
2023-03-04T03:38:01.624Z,0.31
2023-03-04T03:40:29.941Z,0.29
2023-03-04T03:42:58.300Z,0.28
2023-03-04T03:45:26.752Z,0.24
2023-03-04T03:47:55.078Z,0.22
2023-03-04T03:50:24.784Z,0.20
2023-03-04T03:52:53.050Z,0.17
2023-03-04T03:55:21.368Z,0.18
2023-03-04T03:57:49.686Z,0.14
2023-03-04T04:00:18.935Z,0.13
2023-03-04T04:02:47.307Z,0.10
2023-03-04T04:05:16.351Z,0.07
2023-03-04T04:07:46.197Z,0.05
2023-03-04T04:10:15.127Z,0.04
2023-03-04T04:12:44.699Z,0.03
2023-03-04T04:15:14.102Z,0.00
2023-03-04T04:17:42.400Z,-0.03
2023-03-04T04:20:12.176Z,-0.05
2023-03-04T04:22:40.400Z,-0.10
2023-03-04T04:25:10.902Z,-0.09
2023-03-04T04:27:39.203Z,-0.11
2023-03-04T04:30:08.912Z,-0.10
2023-03-04T04:32:37.398Z,-0.11
2023-03-04T04:35:06.296Z,-0.13
2023-03-04T04:37:34.561Z,-0.15
2023-03-04T04:40:02.992Z,-0.16
2023-03-04T04:42:33.682Z,-0.21
2023-03-04T04:45:02.116Z,-0.22
2023-03-04T04:47:30.372Z,-0.25
2023-03-04T04:50:00.178Z,-0.32
2023-03-04T04:52:28.587Z,-0.30
2023-03-04T04:54:56.867Z,-0.32
2023-03-04T04:57:25.256Z,-0.36
2023-03-04T04:59:54.852Z,-0.38
2023-03-04T05:02:23.132Z,-0.38
2023-03-04T05:04:51.307Z,-0.40
2023-03-04T05:07:19.728Z,-0.44
2023-03-04T05:09:48.027Z,-0.49
2023-03-04T05:12:16.654Z,-0.51
2023-03-04T05:14:46.665Z,-0.52
2023-03-04T05:17:16.484Z,-0.54
2023-03-04T05:19:45.530Z,-0.56
2023-03-04T05:22:14.062Z,-0.58
2023-03-04T05:24:42.252Z,-0.59
2023-03-04T05:27:10.541Z,-0.62
2023-03-04T05:29:38.985Z,-0.67
2023-03-04T05:32:07.300Z,-0.68
2023-03-04T05:34:36.999Z,-0.66
2023-03-04T05:37:05.602Z,-0.72
2023-03-04T05:39:34.083Z,-0.74
2023-03-04T05:42:02.391Z,-0.77
2023-03-04T05:44:30.620Z,-0.79
2023-03-04T05:46:58.940Z,-0.83
2023-03-04T05:49:27.236Z,-0.83
2023-03-04T05:51:57.040Z,-0.83
2023-03-04T05:54:25.398Z,-0.87
2023-03-04T05:56:54.839Z,-0.87
2023-03-04T05:59:23.672Z,-0.87
2023-03-04T06:01:52.356Z,-0.88
2023-03-04T06:04:20.971Z,-0.90
2023-03-04T06:06:49.588Z,-0.90
2023-03-04T06:09:21.198Z,-0.90
2023-03-04T06:11:50.102Z,-0.89
2023-03-04T06:14:20.027Z,-0.92
2023-03-04T06:16:49.600Z,-0.93
2023-03-04T06:19:17.972Z,-0.95
2023-03-04T06:21:46.883Z,-0.95
2023-03-04T06:24:15.289Z,-0.91
2023-03-04T06:26:45.204Z,-0.90
2023-03-04T06:29:14.330Z,-0.87
2023-03-04T06:31:43.127Z,-0.84
2023-03-04T06:34:11.673Z,-0.81
2023-03-04T06:36:40.425Z,-0.81
2023-03-04T06:39:09.705Z,-0.78
2023-03-04T06:41:40.146Z,-0.74
2023-03-04T06:44:09.829Z,-0.67
2023-03-04T06:46:38.318Z,-0.69
2023-03-04T06:49:06.576Z,-0.66
2023-03-04T06:51:34.798Z,-0.63
2023-03-04T06:54:03.087Z,-0.60
2023-03-04T06:56:31.402Z,-0.56
2023-03-04T06:58:59.748Z,-0.54
2023-03-04T07:01:30.461Z,-0.53
2023-03-04T07:03:59.138Z,-0.55
2023-03-04T07:06:29.380Z,-0.52
2023-03-04T07:08:58.424Z,-0.47
2023-03-04T07:11:27.496Z,-0.44
2023-03-04T07:13:57.139Z,-0.46
2023-03-04T07:16:26.016Z,-0.40
2023-03-04T07:18:55.741Z,-0.41
2023-03-04T07:21:24.283Z,-0.40
2023-03-04T07:23:52.893Z,-0.41
2023-03-04T07:26:23.731Z,-0.38
2023-03-04T07:28:54.600Z,-0.35
2023-03-04T07:31:27.931Z,-0.28
2023-03-04T07:33:59.128Z,-0.30
2023-03-04T07:36:27.911Z,-0.26
2023-03-04T07:38:56.826Z,-0.18
2023-03-04T07:41:27.712Z,-0.16
2023-03-04T07:43:57.873Z,-0.14
2023-03-04T07:46:26.837Z,-0.13
2023-03-04T07:48:58.243Z,-0.10
2023-03-04T07:51:28.471Z,-0.03
2023-03-04T07:53:59.888Z,-0.03
2023-03-04T07:56:29.677Z,-0.02
2023-03-04T07:58:58.361Z,-0.03
2023-03-04T08:01:33.528Z,0.02
2023-03-04T08:04:03.757Z,0.00
2023-03-04T08:06:32.607Z,0.06
2023-03-04T08:09:02.365Z,0.07
2023-03-04T08:11:33.868Z,0.13
2023-03-04T08:14:05.298Z,0.17
2023-03-04T08:16:34.279Z,0.21
2023-03-04T08:19:05.246Z,0.27
2023-03-04T08:21:34.354Z,0.24
2023-03-04T08:24:08.734Z,0.26
2023-03-04T08:26:41.452Z,0.27
2023-03-04T08:29:11.171Z,0.33
2023-03-04T08:31:39.614Z,0.39
2023-03-04T08:34:10.670Z,0.43
2023-03-04T08:36:38.907Z,0.49
2023-03-04T08:39:07.477Z,0.53
2023-03-04T08:41:39.151Z,0.54
2023-03-04T08:44:08.446Z,0.62
2023-03-04T08:46:37.034Z,0.48
2023-03-04T08:49:05.519Z,0.53
2023-03-04T08:51:36.188Z,0.52
2023-03-04T08:54:04.479Z,0.54
2023-03-04T08:56:32.788Z,0.56
2023-03-04T08:59:04.281Z,0.63
2023-03-04T09:01:32.539Z,0.61
2023-03-04T09:04:00.763Z,0.63
2023-03-04T09:06:29.041Z,0.64
2023-03-04T09:08:58.861Z,0.65
2023-03-04T09:11:27.657Z,0.73
2023-03-04T09:13:57.796Z,0.82
2023-03-04T09:16:26.074Z,0.89
2023-03-04T09:18:54.307Z,0.93
2023-03-04T09:21:22.541Z,0.95
2023-03-04T09:23:51.041Z,1.05
2023-03-04T09:26:23.418Z,1.09
2023-03-04T09:28:52.979Z,1.13
2023-03-04T09:31:22.088Z,1.17
2023-03-04T09:33:51.075Z,1.23
2023-03-04T09:36:19.541Z,1.28
2023-03-04T09:38:47.846Z,1.24
2023-03-04T09:41:20.025Z,1.25
2023-03-04T09:43:50.882Z,1.22
2023-03-04T09:46:28.256Z,1.16
2023-03-04T09:48:57.698Z,1.17
2023-03-04T09:51:42.469Z,1.25
2023-03-04T09:54:16.484Z,1.31
2023-03-04T09:56:44.819Z,1.36
2023-03-04T09:59:31.398Z,1.34
2023-03-04T10:02:02.519Z,1.46
2023-03-04T10:04:38.277Z,1.46
2023-03-04T10:07:10.973Z,1.49
2023-03-04T10:09:47.280Z,1.46
2023-03-04T10:12:21.547Z,1.49
2023-03-04T10:14:57.354Z,1.47
2023-03-04T10:17:33.897Z,1.54
2023-03-04T10:20:06.412Z,1.56
2023-03-04T10:22:38.079Z,1.64
2023-03-04T10:25:25.459Z,1.70
2023-03-04T10:27:56.856Z,1.74
2023-03-04T10:30:41.900Z,1.78
2023-03-04T10:33:21.766Z,1.78
2023-03-04T10:35:54.666Z,1.91
2023-03-04T10:38:24.557Z,1.96
2023-03-04T10:40:52.970Z,1.96
2023-03-04T10:43:22.855Z,1.98
2023-03-04T10:45:58.110Z,1.99
2023-03-04T10:48:28.505Z,2.09
2023-03-04T10:51:13.848Z,2.14
2023-03-04T10:53:44.469Z,2.23
2023-03-04T10:56:32.658Z,2.22
2023-03-04T10:59:31.975Z,2.19
2023-03-04T11:02:03.411Z,2.13
2023-03-04T11:04:36.098Z,2.21
2023-03-04T11:07:11.062Z,2.26
2023-03-04T11:09:41.116Z,2.36
2023-03-04T11:12:13.772Z,2.39
2023-03-04T11:14:46.374Z,2.46
2023-03-04T11:17:23.602Z,2.41
2023-03-04T11:19:57.402Z,2.47
2023-03-04T11:22:28.962Z,2.52
2023-03-04T11:25:01.141Z,2.58
2023-03-04T11:27:39.869Z,2.60
2023-03-04T11:30:25.073Z,2.52
2023-03-04T11:33:00.013Z,2.49
2023-03-04T11:35:38.312Z,2.46
2023-03-04T11:38:16.477Z,2.47
2023-03-04T11:40:47.004Z,2.44
2023-03-04T11:43:19.182Z,2.52
2023-03-04T11:46:13.382Z,2.49
2023-03-04T11:48:53.245Z,2.55
2023-03-04T11:51:30.028Z,2.62
2023-03-04T11:54:13.394Z,2.59
2023-03-04T11:56:45.380Z,2.62
2023-03-04T11:59:33.018Z,2.64
2023-03-04T12:02:14.420Z,2.62
2023-03-04T12:05:15.398Z,2.59
2023-03-04T12:08:18.417Z,2.65
2023-03-04T12:10:57.294Z,2.64
2023-03-04T12:13:48.263Z,2.70
2023-03-04T12:16:27.344Z,2.77
2023-03-04T12:19:10.725Z,2.77
2023-03-04T12:22:06.492Z,2.73
2023-03-04T12:24:51.773Z,2.66
2023-03-04T12:27:29.372Z,2.66
2023-03-04T12:30:05.691Z,2.69
2023-03-04T12:32:44.217Z,2.68
2023-03-04T12:35:36.747Z,2.73
2023-03-04T12:38:41.222Z,2.74
2023-03-04T12:41:27.025Z,2.77
2023-03-04T12:44:05.941Z,2.79
2023-03-04T12:46:46.480Z,2.76
2023-03-04T12:49:30.453Z,2.78
2023-03-04T12:52:09.856Z,2.82
2023-03-04T12:54:42.474Z,2.82
2023-03-04T12:57:15.403Z,2.84
2023-03-04T12:59:51.977Z,2.81
2023-03-04T13:02:35.147Z,2.79
2023-03-04T13:05:17.832Z,2.77
2023-03-04T13:07:56.792Z,2.77
2023-03-04T13:10:25.888Z,2.79
2023-03-04T13:12:56.938Z,2.82
2023-03-04T13:15:35.864Z,2.79
2023-03-04T13:18:29.243Z,2.80
2023-03-04T13:21:09.443Z,2.79
2023-03-04T13:23:37.710Z,2.81
2023-03-04T13:26:21.646Z,2.89
2023-03-04T13:29:10.204Z,2.91
2023-03-04T13:31:59.859Z,2.90
2023-03-04T13:34:54.697Z,2.89
2023-03-04T13:37:35.179Z,2.88
2023-03-04T13:40:32.529Z,2.85
2023-03-04T13:43:29.430Z,2.83
2023-03-04T13:45:59.525Z,2.77
2023-03-04T13:48:36.728Z,2.74
2023-03-04T13:51:05.472Z,2.73
2023-03-04T13:53:50.027Z,2.74
2023-03-04T13:56:31.623Z,2.71
2023-03-04T13:59:19.912Z,2.66
2023-03-04T14:01:57.578Z,2.67
2023-03-04T14:04:31.311Z,2.71
2023-03-04T14:07:01.998Z,2.74
2023-03-04T14:09:32.210Z,2.75
2023-03-04T14:12:05.420Z,2.76
2023-03-04T14:14:48.849Z,2.78
2023-03-04T14:17:22.352Z,2.79
2023-03-04T14:19:53.834Z,2.82
2023-03-04T14:22:25.684Z,2.85
2023-03-04T14:25:03.532Z,2.87
2023-03-04T14:27:35.449Z,2.84
2023-03-04T14:30:07.051Z,2.78
2023-03-04T14:32:37.020Z,2.81
2023-03-04T14:35:09.379Z,2.77
2023-03-04T14:37:45.019Z,2.73
2023-03-04T14:40:24.231Z,2.70
2023-03-04T14:42:57.495Z,2.69
2023-03-04T14:45:27.057Z,2.66
2023-03-04T14:48:01.838Z,2.65
2023-03-04T14:50:30.190Z,2.65
2023-03-04T14:53:16.725Z,2.64
2023-03-04T14:55:58.241Z,2.60
2023-03-04T14:58:28.322Z,2.61
2023-03-04T15:01:08.610Z,2.60
2023-03-04T15:03:38.860Z,2.53
2023-03-04T15:06:19.348Z,2.59
2023-03-04T15:08:48.599Z,2.56
2023-03-04T15:11:26.605Z,2.53
2023-03-04T15:13:57.488Z,2.49
2023-03-04T15:16:28.914Z,2.43
2023-03-04T15:19:06.005Z,2.38
2023-03-04T15:21:40.315Z,2.39
2023-03-04T15:24:11.804Z,2.35
2023-03-04T15:26:42.248Z,2.35
2023-03-04T15:29:16.123Z,2.33
2023-03-04T15:31:45.173Z,2.28
2023-03-04T15:34:16.696Z,2.23
2023-03-04T15:36:47.213Z,2.19
2023-03-04T15:39:17.566Z,2.15
2023-03-04T15:41:48.544Z,2.12
2023-03-04T15:44:17.174Z,2.07
2023-03-04T15:46:47.115Z,2.04
2023-03-04T15:49:16.957Z,1.98
2023-03-04T15:51:45.522Z,1.95
2023-03-04T15:54:15.214Z,1.93
2023-03-04T15:56:44.171Z,1.88
2023-03-04T15:59:14.965Z,1.86
2023-03-04T16:01:43.550Z,1.79
2023-03-04T16:04:17.516Z,1.76
2023-03-04T16:06:47.069Z,1.72
2023-03-04T16:09:19.814Z,1.65
2023-03-04T16:11:50.109Z,1.57
2023-03-04T16:14:18.901Z,1.53
2023-03-04T16:16:48.135Z,1.45
2023-03-04T16:19:17.881Z,1.42
2023-03-04T16:21:46.449Z,1.37
2023-03-04T16:24:19.119Z,1.33
2023-03-04T16:26:48.056Z,1.28
2023-03-04T16:29:17.333Z,1.24
2023-03-04T16:31:45.815Z,1.22
2023-03-04T16:34:15.023Z,1.18
2023-03-04T16:36:44.891Z,1.13
2023-03-04T16:39:20.590Z,1.08
2023-03-04T16:41:51.464Z,1.03
2023-03-04T16:44:20.108Z,0.98
2023-03-04T16:46:48.382Z,0.95
2023-03-04T16:49:16.712Z,0.91
2023-03-04T16:51:48.517Z,0.90
2023-03-04T16:54:19.927Z,0.85
2023-03-04T16:56:48.113Z,0.84
2023-03-04T16:59:17.932Z,0.80
2023-03-04T17:01:46.596Z,0.75
2023-03-04T17:04:15.248Z,0.67
2023-03-04T17:06:43.630Z,0.65
2023-03-04T17:09:14.736Z,0.61
2023-03-04T17:11:44.755Z,0.54
2023-03-04T17:14:13.486Z,0.51
2023-03-04T17:16:41.904Z,0.47
2023-03-04T17:19:10.507Z,0.46
2023-03-04T17:21:38.818Z,0.39
2023-03-04T17:24:11.083Z,0.40
2023-03-04T17:26:42.755Z,0.35
2023-03-04T17:29:14.710Z,0.29
2023-03-04T17:31:42.979Z,0.24
2023-03-04T17:34:11.683Z,0.27
2023-03-04T17:36:39.855Z,0.25
2023-03-04T17:39:08.917Z,0.21
2023-03-04T17:41:38.115Z,0.19
2023-03-04T17:44:07.753Z,0.18
2023-03-04T17:46:36.517Z,0.17
2023-03-04T17:49:04.802Z,0.14
2023-03-04T17:51:35.581Z,0.11
2023-03-04T17:54:05.698Z,0.10
2023-03-04T17:56:34.667Z,0.07
2023-03-04T17:59:05.914Z,0.06
2023-03-04T18:01:35.673Z,0.04
2023-03-04T18:04:04.689Z,0.03
2023-03-04T18:06:33.069Z,0.01
2023-03-04T18:09:01.838Z,-0.01
2023-03-04T18:11:33.164Z,-0.02
2023-03-04T18:14:01.571Z,-0.04
2023-03-04T18:16:30.932Z,-0.05
2023-03-04T18:19:02.038Z,-0.06
2023-03-04T18:21:31.356Z,-0.08
2023-03-04T18:23:59.905Z,-0.10
2023-03-04T18:26:29.736Z,-0.11
2023-03-04T18:28:58.143Z,-0.12
2023-03-04T18:31:44.679Z,-0.14
2023-03-04T18:34:14.500Z,-0.16
2023-03-04T18:36:42.708Z,-0.16
2023-03-04T18:39:10.883Z,-0.16
2023-03-04T18:41:39.106Z,-0.17
2023-03-04T18:44:09.856Z,-0.18
2023-03-04T18:46:49.960Z,-0.19
2023-03-04T18:49:21.350Z,-0.22
2023-03-04T18:51:49.630Z,-0.24
2023-03-04T18:54:18.471Z,-0.28
2023-03-04T18:56:50.129Z,-0.29
2023-03-04T18:59:23.079Z,-0.32
2023-03-04T19:01:53.804Z,-0.38
2023-03-04T19:04:27.784Z,-0.40
2023-03-04T19:06:56.404Z,-0.41
2023-03-04T19:09:24.829Z,-0.46
2023-03-04T19:11:53.276Z,-0.49
2023-03-04T19:14:21.644Z,-0.49
2023-03-04T19:17:07.641Z,-0.53
2023-03-04T19:19:37.653Z,-0.57
2023-03-04T19:22:07.052Z,-0.57
2023-03-04T19:24:35.700Z,-0.59
2023-03-04T19:27:05.511Z,-0.61
2023-03-04T19:29:33.867Z,-0.60
2023-03-04T19:32:02.265Z,-0.61
2023-03-04T19:34:31.818Z,-0.61
2023-03-04T19:37:03.130Z,-0.65
2023-03-04T19:39:31.450Z,-0.69
2023-03-04T19:41:59.730Z,-0.71
2023-03-04T19:44:28.008Z,-0.74
2023-03-04T19:46:56.385Z,-0.75
2023-03-04T19:49:24.611Z,-0.76
2023-03-04T19:51:53.453Z,-0.77
2023-03-04T19:54:23.318Z,-0.81
2023-03-04T19:56:55.170Z,-0.81
2023-03-04T19:59:23.765Z,-0.85
2023-03-04T20:01:52.206Z,-0.84
2023-03-04T20:04:23.783Z,-0.85
2023-03-04T20:06:52.845Z,-0.87
2023-03-04T20:09:22.841Z,-0.91
2023-03-04T20:11:58.378Z,-0.94
2023-03-04T20:14:27.740Z,-0.96
2023-03-04T20:17:00.885Z,-0.97
2023-03-04T20:19:29.449Z,-0.97
2023-03-04T20:21:57.924Z,-0.97
2023-03-04T20:24:28.077Z,-0.99
2023-03-04T20:26:56.820Z,-1.02
2023-03-04T20:29:26.931Z,-1.00
2023-03-04T20:31:55.418Z,-1.00
2023-03-04T20:34:27.153Z,-1.02
2023-03-04T20:36:55.456Z,-1.03
2023-03-04T20:39:29.495Z,-1.04
2023-03-04T20:42:00.095Z,-1.05
2023-03-04T20:44:28.869Z,-1.04
2023-03-04T20:46:57.494Z,-1.05
2023-03-04T20:49:27.828Z,-1.03
2023-03-04T20:52:00.379Z,-1.05
2023-03-04T20:54:28.726Z,-1.04
2023-03-04T20:56:57.034Z,-1.04
2023-03-04T20:59:27.685Z,-1.05
2023-03-04T21:01:56.626Z,-1.04
2023-03-04T21:04:25.149Z,-1.04
2023-03-04T21:06:54.146Z,-1.04
2023-03-04T21:09:23.521Z,-1.04
2023-03-04T21:11:53.997Z,-1.04
2023-03-04T21:14:24.363Z,-1.05
2023-03-04T21:16:56.786Z,-1.01
2023-03-04T21:19:27.498Z,-1.03
2023-03-04T21:21:58.113Z,-1.03
2023-03-04T21:24:31.405Z,-1.03
2023-03-04T21:27:01.631Z,-1.06
2023-03-04T21:29:29.862Z,-1.08
2023-03-04T21:32:16.851Z,-1.09
2023-03-04T21:34:52.387Z,-1.09
2023-03-04T21:37:20.971Z,-1.12
2023-03-04T21:39:49.773Z,-1.14
2023-03-04T21:42:18.721Z,-1.16
2023-03-04T21:44:51.482Z,-1.19
2023-03-04T21:47:22.917Z,-1.20
2023-03-04T21:49:52.106Z,-1.20
2023-03-04T21:52:21.569Z,-1.22
2023-03-04T21:54:50.218Z,-1.22
2023-03-04T21:57:19.173Z,-1.22
2023-03-04T21:59:47.472Z,-1.24
2023-03-04T22:02:17.082Z,-1.26
2023-03-04T22:04:47.026Z,-1.27
2023-03-04T22:07:16.065Z,-1.27
2023-03-04T22:09:44.337Z,-1.26
2023-03-04T22:12:14.358Z,-1.28
2023-03-04T22:14:44.220Z,-1.28
2023-03-04T22:17:12.753Z,-1.29
2023-03-04T22:19:41.070Z,-1.28
2023-03-04T22:22:14.194Z,-1.28
2023-03-04T22:24:42.453Z,-1.29
2023-03-04T22:27:10.732Z,-1.27
2023-03-04T22:29:39.087Z,-1.26
2023-03-04T22:32:07.903Z,-1.26
2023-03-04T22:34:36.250Z,-1.26
2023-03-04T22:37:04.649Z,-1.23
2023-03-04T22:39:34.672Z,-1.19
2023-03-04T22:42:03.145Z,-1.19
2023-03-04T22:44:31.565Z,-1.14
2023-03-04T22:46:59.891Z,-1.13
2023-03-04T22:49:28.265Z,-1.08
2023-03-04T22:51:56.693Z,-1.05
2023-03-04T22:54:24.978Z,-1.02
2023-03-04T22:56:55.045Z,-1.02
2023-03-04T22:59:23.413Z,-0.98
2023-03-04T23:01:53.270Z,-0.98
2023-03-04T23:04:21.898Z,-0.97
2023-03-04T23:06:50.338Z,-0.96
2023-03-04T23:09:18.666Z,-0.95
2023-03-04T23:11:47.140Z,-0.97
2023-03-04T23:14:16.781Z,-0.97
2023-03-04T23:16:45.514Z,-0.99
2023-03-04T23:19:15.484Z,-0.99
2023-03-04T23:21:44.641Z,-0.98
2023-03-04T23:24:14.751Z,-1.00
2023-03-04T23:26:44.262Z,-1.03
2023-03-04T23:29:17.217Z,-1.08
2023-03-04T23:31:46.079Z,-1.11
2023-03-04T23:34:15.325Z,-1.14
2023-03-04T23:36:43.662Z,-1.19
2023-03-04T23:39:14.197Z,-1.19
2023-03-04T23:41:42.868Z,-1.21
2023-03-04T23:44:12.470Z,-1.23
2023-03-04T23:46:42.300Z,-1.27
2023-03-04T23:49:14.504Z,-1.29
2023-03-04T23:51:44.420Z,-1.31
2023-03-04T23:54:13.109Z,-1.32
2023-03-04T23:56:41.448Z,-1.34
2023-03-04T23:59:09.831Z,-1.34
